Time;durP1;ratioP1;P1;durP2;ratioP2;P2;SDS_P1;SDS_P2;PMS_P1;PMS_P2;Temp;Humidity;BMP_temperature;BMP_pressure;BME280_temperature;BME280_humidity;BME280_pressure;Samples;Min_cycle;Max_cycle;Signal;HPM_P1;HPM_P2
2023/09/24 00:00:13;;;;;;;5.53;2.77;;;;;;;23.05;50.31;93353.03;526477;28;789;-43
2023/09/24 00:00:32;;;;;;;6.45;2.78;;;;;;;23.05;50.59;93358.66;526392;28;968;-43
2023/09/24 00:00:48;;;;;;;6.63;2.42;;;;;;;23.03;50.28;93358.56;527450;28;896;-43
2023/09/24 00:01:04;;;;;;;8.30;2.67;;;;;;;23.02;50.78;93363.47;528439;27;1128;-43
2023/09/24 00:01:19;;;;;;;6.20;2.60;;;;;;;23.01;50.73;93364.13;528563;28;835;-43
2023/09/24 00:01:38;;;;;;;3.67;2.37;;;;;;;22.99;50.42;93364.03;528468;28;986;-44
2023/09/24 00:01:53;;;;;;;3.97;2.40;;;;;;;22.96;50.29;93366.00;527868;28;884;-43
2023/09/24 00:02:10;;;;;;;6.63;2.70;;;;;;;22.82;50.32;93342.84;528057;28;1045;-43
2023/09/24 00:02:26;;;;;;;6.22;2.65;;;;;;;22.93;50.38;93358.09;527532;28;962;-43
2023/09/24 00:02:41;;;;;;;4.80;2.40;;;;;;;22.93;50.67;93355.28;526397;28;904;-43
2023/09/24 00:02:57;;;;;;;4.72;2.25;;;;;;;22.91;50.87;93355.94;527757;28;1603;-43
2023/09/24 00:03:14;;;;;;;4.43;2.35;;;;;;;22.90;50.77;93360.09;527586;28;976;-43
2023/09/24 00:03:31;;;;;;;4.50;2.45;;;;;;;22.89;50.79;93357.94;527226;28;1662;-43
2023/09/24 00:03:46;;;;;;;4.00;2.33;;;;;;;22.87;50.73;93355.72;527095;28;1918;-43
2023/09/24 00:04:02;;;;;;;4.72;2.30;;;;;;;22.86;50.60;93359.19;526898;28;1073;-43
2023/09/24 00:04:17;;;;;;;7.23;2.43;;;;;;;22.86;50.71;93359.19;526431;28;904;-43
2023/09/24 00:04:33;;;;;;;8.80;2.60;;;;;;;22.84;50.70;93351.38;526415;28;812;-43
2023/09/24 00:04:48;;;;;;;6.40;2.70;;;;;;;22.84;51.00;93356.28;527496;28;856;-43
2023/09/24 00:05:07;;;;;;;6.33;2.67;;;;;;;22.83;50.81;93361.16;527171;28;983;-43
2023/09/24 00:05:22;;;;;;;7.60;2.63;;;;;;;22.82;50.50;93356.19;527527;28;1072;-43
2023/09/24 00:05:40;;;;;;;5.72;2.55;;;;;;;22.79;50.71;93352.53;527484;28;868;-43
2023/09/24 00:05:58;;;;;;;5.95;2.50;;;;;;;22.78;50.64;93367.25;526645;28;801;-43
2023/09/24 00:06:14;;;;;;;6.28;2.63;;;;;;;22.77;50.22;93362.97;526214;28;833;-43
2023/09/24 00:06:30;;;;;;;5.13;2.40;;;;;;;22.75;50.49;93351.63;526232;28;896;-43
2023/09/24 00:06:45;;;;;;;5.13;2.35;;;;;;;22.76;50.48;93361.53;526846;28;873;-43
2023/09/24 00:07:01;;;;;;;4.97;2.57;;;;;;;22.74;50.91;93353.00;526742;28;1910;-43
2023/09/24 00:07:19;;;;;;;4.18;2.53;;;;;;;22.73;50.84;93362.78;526701;28;1328;-43
2023/09/24 00:07:34;;;;;;;4.82;2.42;;;;;;;22.72;50.90;93359.22;528400;28;952;-43
2023/09/24 00:07:50;;;;;;;4.27;2.27;;;;;;;22.71;51.26;93357.78;528418;28;777;-43
2023/09/24 00:08:05;;;;;;;4.63;2.30;;;;;;;22.69;51.38;93354.88;528493;28;908;-43
2023/09/24 00:08:21;;;;;;;3.50;2.33;;;;;;;22.66;51.31;93353.31;528241;28;931;-43
2023/09/24 00:08:36;;;;;;;4.03;2.70;;;;;;;22.67;51.25;93360.41;527568;28;1076;-43
2023/09/24 00:08:52;;;;;;;9.07;2.70;;;;;;;22.66;51.29;93358.94;527128;28;885;-43
2023/09/24 00:09:08;;;;;;;7.93;2.40;;;;;;;22.65;51.77;93360.31;526457;28;867;-43
2023/09/24 00:09:24;;;;;;;5.05;2.33;;;;;;;22.47;51.78;93334.09;526392;28;872;-43
2023/09/24 00:09:39;;;;;;;6.47;2.50;;;;;;;22.63;51.59;93360.22;526367;28;888;-43
2023/09/24 00:09:56;;;;;;;6.28;2.38;;;;;;;22.63;51.58;93359.50;526866;28;853;-43
2023/09/24 00:10:11;;;;;;;7.45;2.45;;;;;;;22.60;51.51;93358.66;526384;28;855;-43
2023/09/24 00:10:27;;;;;;;7.03;2.53;;;;;;;22.60;51.53;93359.41;526377;28;1010;-43
2023/09/24 00:10:46;;;;;;;5.47;2.35;;;;;;;22.59;51.38;93365.63;526618;28;860;-43
2023/09/24 00:11:02;;;;;;;3.83;2.20;;;;;;;22.57;51.75;93357.81;528413;28;973;-43
2023/09/24 00:11:18;;;;;;;4.13;2.42;;;;;;;22.57;52.05;93352.19;528615;28;1081;-43
2023/09/24 00:11:33;;;;;;;4.40;2.55;;;;;;;22.57;52.13;93354.25;526160;28;1566;-43
2023/09/24 00:11:48;;;;;;;4.63;2.37;;;;;;;22.55;52.07;93360.53;527077;28;1409;-43
2023/09/24 00:12:04;;;;;;;4.43;2.35;;;;;;;22.54;52.13;93361.16;526779;28;1067;-43
2023/09/24 00:12:20;;;;;;;4.77;2.60;;;;;;;22.53;51.95;93363.25;526432;28;920;-43
2023/09/24 00:12:35;;;;;;;4.85;2.47;;;;;;;22.51;52.05;93354.69;527879;28;1150;-43
2023/09/24 00:12:51;;;;;;;8.05;2.40;;;;;;;22.50;51.79;93364.50;528182;28;860;-43
2023/09/24 00:13:06;;;;;;;7.97;2.50;;;;;;;22.50;52.04;93360.97;526412;28;865;-43
2023/09/24 00:13:22;;;;;;;5.47;2.53;;;;;;;22.49;52.01;93353.88;526366;28;819;-43
2023/09/24 00:13:38;;;;;;;5.13;2.38;;;;;;;22.48;51.88;93364.41;526484;28;885;-43
2023/09/24 00:13:54;;;;;;;5.40;2.53;;;;;;;22.48;51.79;93367.22;527998;28;889;-43
2023/09/24 00:14:10;;;;;;;5.45;2.40;;;;;;;22.46;51.93;93355.84;527865;28;833;-43
2023/09/24 00:14:30;;;;;;;5.07;2.38;;;;;;;22.46;51.86;93364.28;526647;28;881;-43
2023/09/24 00:14:45;;;;;;;6.53;2.80;;;;;;;22.46;51.98;93363.56;526930;28;1032;-43
2023/09/24 00:15:01;;;;;;;4.97;2.40;;;;;;;22.45;51.91;93356.50;528558;28;789;-43
2023/09/24 00:15:16;;;;;;;6.53;2.47;;;;;;;22.45;51.79;93364.94;528287;28;2324;-43
2023/09/24 00:15:34;;;;;;;6.00;2.63;;;;;;;22.44;52.06;93361.38;528482;28;809;-43
2023/09/24 00:15:51;;;;;;;4.75;2.58;;;;;;;22.42;52.16;93358.47;528280;28;978;-43
2023/09/24 00:16:06;;;;;;;7.55;2.75;;;;;;;22.43;52.27;93367.66;526396;28;1085;-43
2023/09/24 00:16:21;;;;;;;6.50;2.60;;;;;;;22.42;52.22;93366.91;526346;28;802;-43
2023/09/24 00:16:37;;;;;;;5.85;2.50;;;;;;;22.41;52.40;93362.66;526486;28;1065;-43
2023/09/24 00:16:53;;;;;;;4.50;2.20;;;;;;;22.41;52.42;93364.75;526596;28;854;-43
2023/09/24 00:17:09;;;;;;;3.67;2.23;;;;;;;22.40;52.07;93361.19;526487;28;805;-43
2023/09/24 00:17:25;;;;;;;4.47;2.30;;;;;;;22.40;52.22;93360.47;527042;28;1077;-43
2023/09/24 00:17:40;;;;;;;6.00;2.20;;;;;;;22.40;52.04;93363.28;528583;28;920;-43
2023/09/24 00:17:56;;;;;;;6.17;2.47;;;;;;;22.38;52.05;93366.00;528445;27;884;-43
2023/09/24 00:18:11;;;;;;;4.72;2.60;;;;;;;22.37;52.28;93359.63;528509;28;888;-43
2023/09/24 00:18:27;;;;;;;6.80;2.93;;;;;;;22.38;52.26;93363.19;528293;28;1733;-43
2023/09/24 00:18:42;;;;;;;7.97;2.63;;;;;;;22.37;52.03;93368.06;528192;28;850;-43
2023/09/24 00:18:57;;;;;;;5.57;2.33;;;;;;;22.37;52.05;93365.25;527094;28;999;-43
2023/09/24 00:19:13;;;;;;;4.53;2.73;;;;;;;22.36;52.09;93361.00;526299;28;1064;-43
2023/09/24 00:19:28;;;;;;;6.35;2.55;;;;;;;22.36;52.14;93363.81;526414;28;798;-43
2023/09/24 00:19:45;;;;;;;5.53;2.17;;;;;;;22.36;51.96;93365.88;526287;28;872;-43
2023/09/24 00:20:01;;;;;;;7.97;2.40;;;;;;;22.35;52.26;93365.16;528478;28;797;-43
2023/09/24 00:20:16;;;;;;;8.60;2.60;;;;;;;22.33;52.39;93365.06;528533;28;896;-43
2023/09/24 00:20:32;;;;;;;6.10;2.78;;;;;;;22.33;52.33;93362.25;526863;28;1010;-43
2023/09/24 00:20:49;;;;;;;4.73;2.70;;;;;;;22.32;51.99;93360.81;527225;28;796;-43
2023/09/24 00:21:06;;;;;;;5.75;2.55;;;;;;;22.31;51.99;93362.16;528290;28;1662;-43
2023/09/24 00:21:21;;;;;;;5.57;2.38;;;;;;;22.30;52.13;93363.53;528382;28;1091;-43
2023/09/24 00:21:37;;;;;;;4.43;2.67;;;;;;;22.31;52.15;93364.97;528518;28;860;-43
2023/09/24 00:21:52;;;;;;;6.00;2.70;;;;;;;22.31;52.54;93362.16;527935;28;809;-43
2023/09/24 00:22:10;;;;;;;6.60;2.67;;;;;;;22.30;52.24;93371.97;526323;28;989;-43
2023/09/24 00:22:25;;;;;;;6.03;2.60;;;;;;;22.29;52.34;93366.94;526348;28;876;-43
2023/09/24 00:22:41;;;;;;;4.73;2.40;;;;;;;22.27;52.11;93364.78;526421;28;943;-43
2023/09/24 00:22:57;;;;;;;3.67;2.20;;;;;;;22.26;52.00;93366.09;528074;28;920;-43
2023/09/24 00:23:14;;;;;;;4.70;2.22;;;;;;;22.25;51.79;93359.03;526921;28;821;-43
2023/09/24 00:23:30;;;;;;;4.90;2.42;;;;;;;22.25;51.75;93370.28;527838;28;924;-43
2023/09/24 00:23:45;;;;;;;6.50;2.53;;;;;;;22.24;51.98;93368.13;527173;27;836;-43
2023/09/24 00:24:01;;;;;;;5.67;2.33;;;;;;;22.22;52.14;93368.72;527962;28;774;-43
2023/09/24 00:24:18;;;;;;;6.78;2.72;;;;;;;22.22;52.17;93370.84;528386;28;888;-43
2023/09/24 00:24:33;;;;;;;7.20;3.10;;;;;;;22.21;52.21;93360.94;528465;28;884;-43
2023/09/24 00:24:49;;;;;;;4.57;2.63;;;;;;;22.21;52.28;93364.47;528445;28;983;-43
2023/09/24 00:25:06;;;;;;;5.32;2.55;;;;;;;22.21;52.46;93367.28;528409;28;921;-43
2023/09/24 00:25:21;;;;;;;6.57;2.50;;;;;;;22.21;52.48;93369.38;528431;27;1592;-43
2023/09/24 00:25:37;;;;;;;7.23;3.20;;;;;;;22.20;52.59;93371.44;528492;27;927;-43
2023/09/24 00:25:55;;;;;;;14.13;3.60;;;;;;;22.20;52.21;93365.81;527193;28;987;-43
2023/09/24 00:26:11;;;;;;;17.50;3.08;;;;;;;22.19;52.45;93369.25;528527;28;972;-43
2023/09/24 00:26:27;;;;;;;16.58;3.72;;;;;;;22.19;52.68;93366.44;526233;28;1131;-43
2023/09/24 00:26:42;;;;;;;14.23;3.60;;;;;;;22.18;52.77;93371.34;526356;28;1766;-43
2023/09/24 00:26:58;;;;;;;9.05;3.17;;;;;;;22.18;52.64;93368.53;528373;28;1938;-43
2023/09/24 00:27:14;;;;;;;7.00;3.03;;;;;;;22.18;52.49;93367.78;528367;28;1192;-42
2023/09/24 00:27:29;;;;;;;5.43;2.53;;;;;;;22.17;52.68;93372.72;528468;28;940;-43
2023/09/24 00:27:45;;;;;;;4.53;2.37;;;;;;;22.16;52.59;93374.06;528461;28;834;-43
2023/09/24 00:28:00;;;;;;;4.60;2.33;;;;;;;22.16;52.56;93367.69;526760;28;1433;-43
2023/09/24 00:28:16;;;;;;;5.67;2.47;;;;;;;22.14;52.63;93371.16;526332;28;908;-43
2023/09/24 00:28:31;;;;;;;6.25;2.70;;;;;;;22.13;52.75;93372.50;526368;28;837;-43
2023/09/24 00:28:46;;;;;;;7.07;2.80;;;;;;;22.14;52.83;93370.41;527094;28;913;-43
2023/09/24 00:29:03;;;;;;;6.15;2.80;;;;;;;22.13;52.85;93366.16;528476;28;829;-43
2023/09/24 00:29:18;;;;;;;5.97;2.78;;;;;;;22.12;52.71;93371.03;528521;28;920;-43
2023/09/24 00:29:33;;;;;;;7.43;2.60;;;;;;;22.09;52.82;93366.66;528322;28;1045;-43
2023/09/24 00:29:49;;;;;;;6.60;2.50;;;;;;;22.11;53.20;93372.38;528534;27;773;-43
2023/09/24 00:30:05;;;;;;;7.00;2.70;;;;;;;22.10;53.17;93370.94;526306;28;951;-42
2023/09/24 00:30:21;;;;;;;5.65;2.50;;;;;;;22.09;53.32;93372.28;526343;28;912;-42
2023/09/24 00:30:36;;;;;;;5.15;2.30;;;;;;;22.09;53.02;93372.28;526208;28;1548;-43
2023/09/24 00:30:52;;;;;;;6.27;2.73;;;;;;;21.99;53.03;93363.34;526908;28;762;-42
2023/09/24 00:31:08;;;;;;;5.82;3.20;;;;;;;22.08;53.17;93372.94;527017;28;1052;-42
2023/09/24 00:31:23;;;;;;;5.53;3.15;;;;;;;22.08;52.88;93370.13;528363;27;824;-43
2023/09/24 00:31:39;;;;;;;4.80;2.70;;;;;;;22.06;52.88;93370.75;526741;28;925;-43
2023/09/24 00:31:54;;;;;;;4.32;2.75;;;;;;;22.05;52.94;93374.91;527770;28;857;-42
2023/09/24 00:32:10;;;;;;;4.50;2.77;;;;;;;22.05;53.25;93372.09;528387;28;967;-43
2023/09/24 00:32:25;;;;;;;6.37;2.43;;;;;;;22.05;53.52;93374.16;528397;28;793;-43
2023/09/24 00:32:40;;;;;;;5.88;2.58;;;;;;;22.05;53.44;93371.34;528472;28;1110;-43
2023/09/24 00:32:57;;;;;;;7.77;3.10;;;;;;;22.05;53.40;93372.09;528409;28;793;-43
2023/09/24 00:33:12;;;;;;;16.08;3.55;;;;;;;22.04;53.68;93378.34;528363;28;943;-43
2023/09/24 00:33:29;;;;;;;14.40;3.43;;;;;;;22.03;53.54;93371.25;528537;28;773;-42
2023/09/24 00:33:44;;;;;;;7.43;2.80;;;;;;;22.02;53.68;93378.97;527497;28;1788;-43
2023/09/24 00:34:00;;;;;;;6.57;2.60;;;;;;;22.02;53.57;93376.16;527057;28;1049;-42
2023/09/24 00:34:16;;;;;;;6.93;2.90;;;;;;;22.02;53.58;93369.81;526324;28;911;-43
2023/09/24 00:34:31;;;;;;;5.43;3.03;;;;;;;21.98;53.30;93370.34;526285;28;924;-42
2023/09/24 00:34:47;;;;;;;6.40;2.63;;;;;;;22.00;53.27;93373.25;526840;28;989;-42
2023/09/24 00:35:02;;;;;;;8.13;2.47;;;;;;;21.99;53.52;93374.59;528432;28;832;-43
2023/09/24 00:35:18;;;;;;;6.93;2.72;;;;;;;21.99;53.64;93371.06;528531;28;841;-43
2023/09/24 00:35:34;;;;;;;5.77;2.53;;;;;;;21.99;53.38;93376.69;528359;28;1096;-43
2023/09/24 00:35:50;;;;;;;4.78;2.30;;;;;;;21.97;53.24;93371.69;527439;28;936;-43
2023/09/24 00:36:05;;;;;;;4.30;2.53;;;;;;;21.96;53.03;93373.03;526314;28;1131;-43
2023/09/24 00:36:21;;;;;;;4.75;2.75;;;;;;;21.97;53.25;93376.56;526624;28;1060;-43
2023/09/24 00:36:36;;;;;;;7.63;2.77;;;;;;;21.96;53.56;93373.03;528476;28;864;-42
2023/09/24 00:36:53;;;;;;;7.40;2.80;;;;;;;21.95;53.58;93382.84;527888;28;1054;-42
2023/09/24 00:37:09;;;;;;;4.65;2.63;;;;;;;21.94;53.62;93372.94;528549;28;840;-42
2023/09/24 00:37:24;;;;;;;3.67;2.30;;;;;;;21.92;53.46;93370.00;528426;28;856;-43
2023/09/24 00:37:41;;;;;;;4.05;2.42;;;;;;;21.93;53.42;93373.56;528520;28;837;-43
2023/09/24 00:37:56;;;;;;;6.55;2.85;;;;;;;21.92;53.32;93375.63;528060;28;1008;-43
2023/09/24 00:38:12;;;;;;;8.70;2.73;;;;;;;21.92;53.26;93370.00;528432;28;1623;-43
2023/09/24 00:38:27;;;;;;;6.30;2.40;;;;;;;21.91;53.50;93381.91;527692;27;1061;-43
2023/09/24 00:38:42;;;;;;;4.28;2.15;;;;;;;21.90;53.59;93381.16;526587;28;872;-43
2023/09/24 00:38:58;;;;;;;6.27;2.13;;;;;;;21.88;53.61;93370.56;528235;28;1670;-43
2023/09/24 00:39:14;;;;;;;7.13;2.50;;;;;;;21.88;53.68;93375.44;526361;28;881;-43
2023/09/24 00:39:30;;;;;;;6.65;2.70;;;;;;;21.87;53.68;93380.31;526756;28;873;-43
2023/09/24 00:39:46;;;;;;;5.07;2.43;;;;;;;21.86;53.70;93380.97;528402;28;872;-43
2023/09/24 00:40:03;;;;;;;4.57;2.53;;;;;;;21.85;53.60;93373.91;527927;28;1085;-43
2023/09/24 00:40:19;;;;;;;4.43;2.67;;;;;;;21.84;53.87;93380.84;526390;28;863;-43
2023/09/24 00:40:34;;;;;;;5.70;2.53;;;;;;;21.83;53.93;93379.38;526261;28;986;-43
2023/09/24 00:40:50;;;;;;;6.87;2.53;;;;;;;21.82;54.05;93384.31;527622;28;793;-43
2023/09/24 00:41:05;;;;;;;6.80;2.60;;;;;;;21.82;54.03;93372.28;528433;28;978;-43
2023/09/24 00:41:21;;;;;;;6.28;2.35;;;;;;;21.81;54.01;93376.44;528351;28;1184;-43
2023/09/24 00:41:36;;;;;;;4.63;2.53;;;;;;;21.81;53.85;93373.63;528036;28;2662;-43
2023/09/24 00:41:51;;;;;;;4.30;2.80;;;;;;;21.80;54.13;93378.56;527046;28;1140;-43
2023/09/24 00:42:09;;;;;;;7.72;2.78;;;;;;;21.79;54.21;93371.47;526883;28;1293;-43
2023/09/24 00:42:27;;;;;;;8.63;2.80;;;;;;;21.79;54.36;93376.34;526239;28;873;-43
2023/09/24 00:42:43;;;;;;;6.43;2.92;;;;;;;21.79;54.40;93373.53;528246;28;900;-43
2023/09/24 00:42:58;;;;;;;7.00;3.43;;;;;;;21.77;54.55;93371.34;528317;28;1234;-43
2023/09/24 00:43:33;;;;;;;7.90;3.50;;;;;;;21.78;54.45;93377.72;528271;28;836;-43
2023/09/24 00:43:48;;;;;;;6.32;2.47;;;;;;;21.77;54.15;93384.69;527374;28;996;-44
2023/09/24 00:44:04;;;;;;;6.60;2.67;;;;;;;21.75;54.24;93382.50;528422;28;946;-43
2023/09/24 00:44:19;;;;;;;5.60;2.35;;;;;;;21.74;54.25;93381.03;528493;28;983;-44
2023/09/24 00:44:36;;;;;;;5.17;2.27;;;;;;;21.74;54.21;93383.84;528400;28;859;-43
2023/09/24 00:44:52;;;;;;;6.05;3.00;;;;;;;21.72;54.34;93380.91;528345;28;896;-43
2023/09/24 00:45:10;;;;;;;4.78;2.67;;;;;;;21.72;54.42;93383.03;528413;28;1203;-43
2023/09/24 00:45:26;;;;;;;5.55;2.53;;;;;;;21.63;54.30;93367.09;528389;28;852;-43
2023/09/24 00:45:44;;;;;;;6.25;2.60;;;;;;;21.70;54.37;93377.31;528482;28;886;-43
2023/09/24 00:46:01;;;;;;;4.60;2.50;;;;;;;21.60;54.26;93373.94;526463;28;875;-43
2023/09/24 00:46:16;;;;;;;7.22;2.78;;;;;;;21.69;54.52;93373.03;526658;28;942;-43
2023/09/24 00:46:32;;;;;;;7.35;2.58;;;;;;;21.68;54.67;93377.91;528283;28;840;-43
2023/09/24 00:46:47;;;;;;;4.67;2.57;;;;;;;21.67;54.72;93378.53;526589;28;1548;-43
2023/09/24 00:47:03;;;;;;;5.25;2.88;;;;;;;21.65;54.63;93379.16;526242;28;1983;-43
2023/09/24 00:47:19;;;;;;;7.72;3.00;;;;;;;21.64;54.56;93377.69;526233;28;929;-43
2023/09/24 00:47:34;;;;;;;8.73;2.97;;;;;;;21.63;54.66;93379.06;526172;28;829;-43
2023/09/24 00:47:50;;;;;;;9.13;2.70;;;;;;;21.62;54.56;93379.69;527047;28;873;-43
2023/09/24 00:48:05;;;;;;;8.80;2.70;;;;;;;21.61;54.37;93375.41;527815;28;1139;-43
2023/09/24 00:48:23;;;;;;;6.07;2.63;;;;;;;21.60;54.75;93382.38;526251;28;844;-43
2023/09/24 00:48:38;;;;;;;5.63;2.63;;;;;;;21.58;54.82;93379.47;526286;28;789;-43
2023/09/24 00:48:56;;;;;;;5.95;2.67;;;;;;;21.55;54.92;93384.25;527738;28;863;-43
2023/09/24 00:49:13;;;;;;;5.18;2.65;;;;;;;21.54;55.01;93382.06;527491;28;1180;-43
2023/09/24 00:49:29;;;;;;;3.80;2.55;;;;;;;21.51;55.10;93375.63;526151;28;1696;-43
2023/09/24 00:49:44;;;;;;;7.13;2.60;;;;;;;21.51;55.06;93380.50;523945;28;1109;-43
2023/09/24 00:50:00;;;;;;;6.80;2.40;;;;;;;21.49;55.15;93374.78;524134;28;797;-43
2023/09/24 00:50:15;;;;;;;5.30;2.27;;;;;;;21.48;55.15;93379.69;521981;28;1053;-43
2023/09/24 00:50:33;;;;;;;7.80;2.67;;;;;;;21.49;54.91;93380.38;521957;28;1577;-43
2023/09/24 00:50:48;;;;;;;5.65;2.78;;;;;;;21.48;55.11;93376.13;521688;28;885;-43
2023/09/24 00:51:26;;;;;;;5.17;2.83;;;;;;;21.46;55.15;93373.22;522866;28;813;-43
2023/09/24 00:51:42;;;;;;;4.45;2.40;;;;;;;21.46;55.34;93379.56;525938;28;1742;-43
2023/09/24 00:51:57;;;;;;;4.10;2.50;;;;;;;21.47;55.55;93378.22;526323;28;824;-43
2023/09/24 00:52:13;;;;;;;4.50;2.60;;;;;;;21.46;55.48;93385.16;526278;28;849;-43
2023/09/24 00:52:29;;;;;;;5.63;2.58;;;;;;;21.46;55.52;93381.66;526290;28;860;-43
2023/09/24 00:52:45;;;;;;;7.18;2.35;;;;;;;21.46;55.28;93382.38;527522;28;947;-43
2023/09/24 00:53:01;;;;;;;6.22;2.40;;;;;;;21.46;55.32;93387.28;528514;28;808;-43
2023/09/24 00:53:17;;;;;;;5.30;2.70;;;;;;;21.44;55.22;93385.06;528287;28;999;-43
2023/09/24 00:53:33;;;;;;;5.37;2.80;;;;;;;21.44;55.15;93378.75;528168;28;950;-43
2023/09/24 00:53:51;;;;;;;5.88;2.50;;;;;;;21.31;55.06;93366.13;528276;28;955;-43
2023/09/24 00:54:07;;;;;;;6.80;2.40;;;;;;;21.43;55.25;93392.06;528287;28;1200;-43
2023/09/24 00:54:23;;;;;;;5.15;2.40;;;;;;;21.41;55.30;93383.53;526044;28;2524;-43
2023/09/24 00:54:38;;;;;;;6.20;2.50;;;;;;;21.40;55.15;93382.03;526164;28;921;-43
2023/09/24 00:54:56;;;;;;;4.90;2.30;;;;;;;21.39;55.17;93380.59;525699;28;857;-43
2023/09/24 00:55:13;;;;;;;4.05;2.42;;;;;;;21.39;55.33;93383.41;526154;28;845;-43
2023/09/24 00:55:29;;;;;;;4.45;2.63;;;;;;;21.38;55.32;93384.75;526033;28;1671;-43
2023/09/24 00:55:45;;;;;;;4.22;2.40;;;;;;;21.38;55.34;93375.59;526017;28;916;-43
2023/09/24 00:56:00;;;;;;;4.97;2.70;;;;;;;21.36;55.44;93378.28;526151;28;813;-43
2023/09/24 00:56:16;;;;;;;7.45;2.97;;;;;;;21.37;55.57;93377.69;524990;28;2789;-43
2023/09/24 00:56:32;;;;;;;7.30;2.90;;;;;;;21.37;55.52;93379.75;526073;28;885;-43
2023/09/24 00:56:49;;;;;;;4.30;2.58;;;;;;;21.36;55.64;93379.03;524629;28;972;-43
2023/09/24 00:57:05;;;;;;;4.63;2.88;;;;;;;21.35;55.76;93382.47;526088;28;1634;-43
2023/09/24 00:57:21;;;;;;;4.88;2.70;;;;;;;21.32;55.53;93378.09;524069;28;945;-43
2023/09/24 00:57:37;;;;;;;5.32;2.55;;;;;;;21.21;55.61;93365.59;524027;28;963;-43
2023/09/24 00:57:52;;;;;;;5.13;2.40;;;;;;;21.31;55.57;93376.63;524008;28;782;-43
2023/09/24 00:58:08;;;;;;;5.80;2.50;;;;;;;21.31;55.57;93382.25;524821;28;1532;-43
2023/09/24 00:58:28;;;;;;;4.40;2.42;;;;;;;21.30;55.71;93375.16;523897;28;955;-43
2023/09/24 00:58:47;;;;;;;2.85;2.45;;;;;;;21.24;55.95;93369.97;525337;28;1078;-43
2023/09/24 00:59:03;;;;;;;4.82;2.55;;;;;;;21.19;56.06;93359.13;524061;28;829;-43
2023/09/24 00:59:19;;;;;;;6.22;2.95;;;;;;;21.14;56.18;93361.72;524121;28;877;-43
2023/09/24 00:59:35;;;;;;;5.40;2.80;;;;;;;21.28;56.07;93375.06;521983;28;936;-43
2023/09/24 00:59:50;;;;;;;4.55;2.33;;;;;;;21.27;55.92;93376.44;523262;28;845;-43
2023/09/24 01:00:11;;;;;;;4.07;2.30;;;;;;;21.28;56.12;93383.50;524031;28;777;-43
2023/09/24 01:00:30;;;;;;;4.43;2.65;;;;;;;21.27;56.37;93382.03;526145;28;975;-43
2023/09/24 01:00:46;;;;;;;5.20;2.95;;;;;;;21.17;56.40;93364.63;526064;28;900;-43
2023/09/24 01:01:06;;;;;;;4.68;2.80;;;;;;;21.27;56.18;93388.38;526226;28;816;-43
2023/09/24 01:01:24;;;;;;;6.15;2.75;;;;;;;21.26;56.05;93374.97;526332;28;923;-43
2023/09/24 01:01:40;;;;;;;6.80;3.03;;;;;;;21.25;56.10;93385.44;528087;28;1067;-43
2023/09/24 01:01:57;;;;;;;5.68;2.80;;;;;;;21.14;55.96;93369.41;526596;28;873;-43
2023/09/24 01:02:13;;;;;;;6.25;2.90;;;;;;;21.20;56.12;93377.44;526091;28;892;-43
2023/09/24 01:02:34;;;;;;;5.53;2.83;;;;;;;21.23;56.19;93381.81;524098;28;821;-43
2023/09/24 01:02:50;;;;;;;5.88;2.67;;;;;;;21.21;56.23;93376.81;525556;28;830;-43
2023/09/24 01:03:06;;;;;;;5.05;2.63;;;;;;;21.10;56.27;93360.78;528103;28;1160;-43
2023/09/24 01:03:26;;;;;;;5.28;2.75;;;;;;;21.04;56.31;93352.78;528173;28;956;-43
2023/09/24 01:03:41;;;;;;;5.47;2.58;;;;;;;21.21;56.27;93378.88;528194;28;1631;-43
2023/09/24 01:03:57;;;;;;;4.30;2.60;;;;;;;21.21;56.23;93371.19;526533;28;829;-43
2023/09/24 01:04:12;;;;;;;4.35;2.67;;;;;;;21.22;56.48;93374.75;526110;28;848;-43
2023/09/24 01:04:28;;;;;;;4.80;2.80;;;;;;;21.22;56.47;93371.94;527515;28;826;-43
2023/09/24 01:04:44;;;;;;;5.82;2.83;;;;;;;21.22;56.38;93371.94;527890;28;1151;-43
2023/09/24 01:05:03;;;;;;;6.82;2.70;;;;;;;21.14;56.56;93358.19;527892;28;860;-43
2023/09/24 01:05:18;;;;;;;6.07;2.70;;;;;;;21.23;56.67;93376.91;528492;28;900;-43
2023/09/24 01:05:34;;;;;;;5.37;2.67;;;;;;;21.24;56.55;93369.97;528340;27;851;-43
2023/09/24 01:05:53;;;;;;;6.20;2.67;;;;;;;21.24;56.71;93369.22;528432;27;853;-43
2023/09/24 01:06:08;;;;;;;5.15;2.63;;;;;;;21.24;56.76;93377.66;528361;28;1215;-43
2023/09/24 01:06:24;;;;;;;5.23;2.70;;;;;;;21.24;56.65;93374.84;528309;28;1131;-43
2023/09/24 01:06:39;;;;;;;6.20;2.55;;;;;;;21.23;56.56;93373.38;528486;28;1145;-43
2023/09/24 01:06:56;;;;;;;9.37;2.63;;;;;;;21.22;56.62;93372.69;528326;28;1894;-43
2023/09/24 01:07:11;;;;;;;7.78;2.80;;;;;;;21.22;56.79;93375.47;526408;28;1820;-43
2023/09/24 01:07:28;;;;;;;5.07;2.50;;;;;;;21.22;56.82;93371.94;526332;28;856;-43
2023/09/24 01:07:44;;;;;;;5.60;2.60;;;;;;;21.21;56.67;93371.19;526498;28;1153;-44
2023/09/24 01:07:59;;;;;;;5.82;2.95;;;;;;;21.20;56.66;93369.03;528363;28;963;-43
2023/09/24 01:08:17;;;;;;;4.50;2.90;;;;;;;21.20;56.66;93366.22;528359;28;915;-43
2023/09/24 01:08:33;;;;;;;4.80;2.53;;;;;;;21.19;56.61;93364.75;528346;28;808;-43
2023/09/24 01:08:48;;;;;;;6.13;2.60;;;;;;;21.19;56.72;93365.47;528210;28;797;-43
2023/09/24 01:09:07;;;;;;;5.20;2.60;;;;;;;21.18;56.67;93357.69;528270;28;816;-43
2023/09/24 01:09:22;;;;;;;3.33;2.30;;;;;;;21.17;56.67;93368.19;526089;28;849;-43
2023/09/24 01:09:38;;;;;;;4.18;2.30;;;;;;;21.18;56.73;93363.31;525858;28;911;-43
2023/09/24 01:09:53;;;;;;;4.27;2.53;;;;;;;21.19;56.75;93364.75;527449;28;813;-43
2023/09/24 01:10:10;;;;;;;3.87;2.57;;;;;;;21.01;56.65;93336.41;528029;28;828;-43
2023/09/24 01:10:25;;;;;;;5.85;2.78;;;;;;;21.18;56.74;93363.31;528142;28;869;-43
2023/09/24 01:10:44;;;;;;;5.75;2.88;;;;;;;21.18;56.84;93357.69;528316;28;813;-43
2023/09/24 01:11:01;;;;;;;4.70;2.70;;;;;;;21.16;56.91;93352.66;528413;28;946;-43
2023/09/24 01:11:17;;;;;;;5.43;2.70;;;;;;;21.18;56.92;93360.50;528447;28;875;-43
2023/09/24 01:11:33;;;;;;;5.28;2.60;;;;;;;21.19;56.90;93359.13;528320;28;1065;-44
2023/09/24 01:11:50;;;;;;;3.92;2.50;;;;;;;21.18;56.99;93364.00;528249;28;1674;-43
2023/09/24 01:12:05;;;;;;;5.82;2.47;;;;;;;21.18;56.80;93361.19;528308;28;1192;-43
2023/09/24 01:12:26;;;;;;;5.97;2.30;;;;;;;21.18;57.04;93363.31;526392;28;801;-43
2023/09/24 01:12:53;;;;;;;4.95;2.40;;;;;;;21.18;57.12;93357.69;526344;28;1042;-43
2023/09/24 01:13:09;;;;;;;5.70;2.60;;;;;;;21.18;57.15;93361.19;527845;28;1285;-43
2023/09/24 01:13:26;;;;;;;6.70;2.83;;;;;;;21.18;57.11;93363.31;527841;27;1361;-43
2023/09/24 01:13:44;;;;;;;6.15;3.03;;;;;;;21.18;57.12;93352.06;528394;28;893;-43
2023/09/24 01:14:00;;;;;;;8.77;2.83;;;;;;;21.19;57.11;93356.31;526315;28;896;-43
2023/09/24 01:14:15;;;;;;;8.57;2.63;;;;;;;21.18;57.21;93358.41;526225;28;873;-43
2023/09/24 01:14:31;;;;;;;7.47;2.58;;;;;;;21.18;57.37;93364.00;526669;28;1211;-43
2023/09/24 01:14:46;;;;;;;7.45;2.60;;;;;;;21.18;57.46;93361.19;526967;28;1032;-43
2023/09/24 01:15:02;;;;;;;5.43;2.87;;;;;;;21.19;57.44;93356.31;526248;28;824;-43
2023/09/24 01:15:18;;;;;;;5.70;3.05;;;;;;;21.20;57.43;93366.22;526350;28;1589;-43
2023/09/24 01:15:33;;;;;;;5.70;3.03;;;;;;;21.19;57.23;93365.47;526211;28;821;-43
2023/09/24 01:15:49;;;;;;;5.03;2.70;;;;;;;21.19;57.35;93364.75;527445;28;857;-43
2023/09/24 01:16:09;;;;;;;6.43;2.63;;;;;;;21.18;57.38;93360.50;528353;28;892;-43
2023/09/24 01:16:24;;;;;;;6.65;2.65;;;;;;;21.18;57.43;93361.19;528149;28;1680;-43
2023/09/24 01:16:40;;;;;;;5.13;2.90;;;;;;;21.18;57.31;93363.31;526353;28;813;-43
2023/09/24 01:16:55;;;;;;;4.47;2.83;;;;;;;21.18;57.37;93366.81;528171;28;896;-43
2023/09/24 01:17:11;;;;;;;3.30;2.50;;;;;;;21.18;57.23;93361.19;528245;28;1515;-43
2023/09/24 01:17:27;;;;;;;3.03;2.38;;;;;;;21.19;57.39;93364.75;526258;28;821;-43
2023/09/24 01:17:42;;;;;;;3.78;2.40;;;;;;;21.19;57.37;93370.34;526359;28;900;-43
2023/09/24 01:17:57;;;;;;;4.63;2.30;;;;;;;21.18;57.36;93366.09;528304;28;1013;-43
2023/09/24 01:18:13;;;;;;;6.95;2.72;;;;;;;21.17;57.35;93365.38;528288;28;1004;-43
2023/09/24 01:18:28;;;;;;;6.23;2.77;;;;;;;21.17;57.38;93361.84;528330;28;804;-43
2023/09/24 01:18:44;;;;;;;5.53;2.57;;;;;;;21.17;57.33;93364.63;527939;28;797;-43
2023/09/24 01:18:59;;;;;;;6.93;2.80;;;;;;;21.16;57.34;93360.38;528291;28;888;-43
2023/09/24 01:19:15;;;;;;;4.97;2.67;;;;;;;21.14;57.52;93363.78;526506;28;892;-43